Meteo Giornale » Osservazioni meteo Messico » Cancun
ore: 12:44 - Osservazioni Meteo Cancun
Lat. 21° 2' N Lon. 86° 52' W Alt. 5 metri s.l.m.
33 °C
Nuvoloso
Temp. 24 Ore
25 °C
33 °C
Est
22.2 Km/h
Dew point 26 °C
Umidità 66 %
Visibilità 11 Km
Il sole sorge alle ore 06:30
Il sole tramonta alle ore 19:04
| Data e Ora | Cielo e Fenomeni | T °C | DP °C | Um. % | Pres. hPa | Vis. km | Vento km/h | |
|---|---|---|---|---|---|---|---|---|
| Oggi h: 12:44 | Nuvoloso | 33 | 26 | 66 | 1016 | 11 | E 22.2 | |
| Oggi h: 11:45 | Nuvoloso | 33 | 25 | 62 | 1016 | 11 | E/NE 9.3 | |
| Oggi h: 10:46 | Nuvoloso | 33 | 25 | 62 | 1016 | 11 | E/SE 13 | |
| Oggi h: 09:49 | Nuvoloso | 32 | 25 | 66 | 1016 | 11 | E 13 | |
| Oggi h: 08:49 | Nuvoloso | 30 | 26 | 79 | 1015 | 11 | NE 9.3 | |
| Oggi h: 07:49 | Nuvoloso | 28 | 26 | 88 | 1015 | 11 | N 0 | |
| Oggi h: 06:41 | Poco Nuvoloso | 25 | 24 | 94 | 1015 | 11 | N 3.7 | |
| Oggi h: 05:40 | Sereno | 25 | 24 | 94 | 1014 | 11 | N 0 | |
| Oggi h: 04:41 | Sereno | 26 | 25 | 94 | 1014 | 11 | NO 9.3 | |
| Oggi h: 03:45 | Poco Nuvoloso | 27 | 26 | 94 | 1014 | 11 | N 0 | |
| Oggi h: 02:50 | Poco Nuvoloso | 28 | 26 | 88 | 1014 | 11 | N 0 | |
| Oggi h: 01:40 | Poco Nuvoloso | 29 | 26 | 83 | 1014 | 11 | N 3.7 | |
| Oggi h: 00:40 | Poco Nuvoloso | 29 | 26 | 83 | 1015 | 11 | N 5.5 | |
| Ieri h: 23:40 | Poco Nuvoloso | 29 | 26 | 83 | 1016 | 11 | N 3.7 | |
| Ieri h: 22:41 | Poco Nuvoloso | 29 | 26 | 83 | 1016 | 11 | N 3.7 | |
| Ieri h: 21:40 | Nuvoloso | 29 | 26 | 83 | 1015 | 11 | N 3.7 | |
| Ieri h: 20:40 | Nuvoloso | 29 | 25 | 79 | 1015 | 11 | N 0 | |
| Ieri h: 19:40 | Poco Nuvoloso | 29 | 26 | 83 | 1015 | 11 | N 0 | |
| Ieri h: 18:42 | Nuvoloso | 30 | 26 | 79 | 1014 | 11 | E/SE 9.3 | |
| Ieri h: 17:42 | Nuvoloso | 30 | 26 | 79 | 1014 | 11 | E 11.1 | |
| Ieri h: 16:42 | Nuvoloso | 31 | 26 | 74 | 1014 | 11 | E/SE 9.3 | |
| Ieri h: 15:42 | Nuvoloso | 31 | 26 | 74 | 1014 | 11 | E 7.4 | |
| Ieri h: 14:41 | Nuvoloso | 33 | 25 | 62 | 1014 | 11 | E/SE 14.8 | |
| Ieri h: 13:42 | Nuvoloso | 33 | 23 | 55 | 1015 | 11 | SE 9.3 | |



